sensor_id;sensor_type;location;lat;lon;timestamp;P1;durP1;ratioP1;P2;durP2;ratioP2
21215;SDS011;10765;50.954;5.322;2022-08-19T00:01:19;17.03;;;15.83;;
21215;SDS011;10765;50.954;5.322;2022-08-19T00:03:46;14.40;;;13.40;;
21215;SDS011;10765;50.954;5.322;2022-08-19T00:06:13;14.13;;;13.03;;
21215;SDS011;10765;50.954;5.322;2022-08-19T00:08:42;19.23;;;17.93;;
21215;SDS011;10765;50.954;5.322;2022-08-19T00:11:10;25.10;;;23.07;;
21215;SDS011;10765;50.954;5.322;2022-08-19T00:13:37;18.47;;;17.00;;
21215;SDS011;10765;50.954;5.322;2022-08-19T00:16:04;16.63;;;15.43;;
21215;SDS011;10765;50.954;5.322;2022-08-19T00:18:31;19.13;;;17.63;;
21215;SDS011;10765;50.954;5.322;2022-08-19T00:20:58;19.30;;;17.73;;
21215;SDS011;10765;50.954;5.322;2022-08-19T00:23:26;21.50;;;19.80;;
21215;SDS011;10765;50.954;5.322;2022-08-19T00:25:54;20.23;;;18.83;;
21215;SDS011;10765;50.954;5.322;2022-08-19T00:28:21;15.33;;;14.27;;
21215;SDS011;10765;50.954;5.322;2022-08-19T00:30:48;12.20;;;11.40;;
21215;SDS011;10765;50.954;5.322;2022-08-19T00:33:16;12.57;;;11.67;;
21215;SDS011;10765;50.954;5.322;2022-08-19T00:35:43;10.33;;;9.53;;
21215;SDS011;10765;50.954;5.322;2022-08-19T00:38:10;15.50;;;14.40;;
21215;SDS011;10765;50.954;5.322;2022-08-19T00:40:37;17.40;;;16.10;;
21215;SDS011;10765;50.954;5.322;2022-08-19T00:43:09;16.77;;;15.47;;
21215;SDS011;10765;50.954;5.322;2022-08-19T00:45:38;19.47;;;17.87;;
21215;SDS011;10765;50.954;5.322;2022-08-19T00:48:08;13.53;;;12.43;;
21215;SDS011;10765;50.954;5.322;2022-08-19T00:50:35;16.13;;;14.93;;
21215;SDS011;10765;50.954;5.322;2022-08-19T00:53:05;14.70;;;13.60;;
21215;SDS011;10765;50.954;5.322;2022-08-19T00:55:33;18.47;;;16.97;;
21215;SDS011;10765;50.954;5.322;2022-08-19T00:58:01;20.93;;;19.33;;
21215;SDS011;10765;50.954;5.322;2022-08-19T01:00:31;26.20;;;24.10;;
21215;SDS011;10765;50.954;5.322;2022-08-19T01:03:01;34.23;;;31.33;;
21215;SDS011;10765;50.954;5.322;2022-08-19T01:05:29;31.70;;;29.03;;
21215;SDS011;10765;50.954;5.322;2022-08-19T01:07:56;36.33;;;33.30;;
21215;SDS011;10765;50.954;5.322;2022-08-19T01:10:26;37.83;;;34.63;;
21215;SDS011;10765;50.954;5.322;2022-08-19T01:12:55;40.83;;;37.27;;
21215;SDS011;10765;50.954;5.322;2022-08-19T01:15:25;47.30;;;43.00;;
21215;SDS011;10765;50.954;5.322;2022-08-19T01:17:56;46.70;;;42.30;;
21215;SDS011;10765;50.954;5.322;2022-08-19T01:20:27;51.73;;;46.83;;
21215;SDS011;10765;50.954;5.322;2022-08-19T01:22:56;53.67;;;48.47;;
21215;SDS011;10765;50.954;5.322;2022-08-19T01:25:27;53.03;;;47.80;;
21215;SDS011;10765;50.954;5.322;2022-08-19T01:27:57;52.20;;;47.27;;
21215;SDS011;10765;50.954;5.322;2022-08-19T01:30:25;51.20;;;46.30;;
21215;SDS011;10765;50.954;5.322;2022-08-19T01:32:55;49.57;;;44.87;;
21215;SDS011;10765;50.954;5.322;2022-08-19T01:35:24;51.07;;;45.97;;
21215;SDS011;10765;50.954;5.322;2022-08-19T01:37:56;52.37;;;47.13;;
21215;SDS011;10765;50.954;5.322;2022-08-19T01:40:25;53.23;;;48.00;;
21215;SDS011;10765;50.954;5.322;2022-08-19T01:42:54;53.90;;;48.60;;
21215;SDS011;10765;50.954;5.322;2022-08-19T01:45:22;54.07;;;48.37;;
21215;SDS011;10765;50.954;5.322;2022-08-19T01:47:50;53.73;;;48.23;;
21215;SDS011;10765;50.954;5.322;2022-08-19T01:50:18;49.00;;;44.00;;
21215;SDS011;10765;50.954;5.322;2022-08-19T01:52:44;52.77;;;47.27;;
21215;SDS011;10765;50.954;5.322;2022-08-19T01:55:14;51.80;;;46.60;;
21215;SDS011;10765;50.954;5.322;2022-08-19T01:57:46;51.43;;;46.13;;
21215;SDS011;10765;50.954;5.322;2022-08-19T02:00:16;47.87;;;42.87;;
21215;SDS011;10765;50.954;5.322;2022-08-19T02:02:44;49.30;;;44.20;;
21215;SDS011;10765;50.954;5.322;2022-08-19T02:05:11;49.73;;;44.60;;
21215;SDS011;10765;50.954;5.322;2022-08-19T02:07:39;48.67;;;43.47;;
21215;SDS011;10765;50.954;5.322;2022-08-19T02:10:08;49.07;;;43.97;;
21215;SDS011;10765;50.954;5.322;2022-08-19T02:12:38;49.10;;;44.17;;
21215;SDS011;10765;50.954;5.322;2022-08-19T02:15:05;49.47;;;44.17;;
21215;SDS011;10765;50.954;5.322;2022-08-19T02:17:33;50.27;;;44.97;;
21215;SDS011;10765;50.954;5.322;2022-08-19T02:20:00;52.70;;;47.20;;
21215;SDS011;10765;50.954;5.322;2022-08-19T02:22:27;49.83;;;44.57;;
21215;SDS011;10765;50.954;5.322;2022-08-19T02:24:54;49.77;;;44.50;;
21215;SDS011;10765;50.954;5.322;2022-08-19T02:27:21;50.53;;;45.30;;
21215;SDS011;10765;50.954;5.322;2022-08-19T02:29:50;46.30;;;41.60;;
21215;SDS011;10765;50.954;5.322;2022-08-19T02:32:17;43.77;;;39.47;;
21215;SDS011;10765;50.954;5.322;2022-08-19T02:34:44;45.23;;;40.87;;
21215;SDS011;10765;50.954;5.322;2022-08-19T02:37:11;44.43;;;39.80;;
21215;SDS011;10765;50.954;5.322;2022-08-19T02:39:53;43.73;;;39.27;;
21215;SDS011;10765;50.954;5.322;2022-08-19T02:42:20;45.97;;;41.10;;
21215;SDS011;10765;50.954;5.322;2022-08-19T02:44:47;47.50;;;42.60;;
21215;SDS011;10765;50.954;5.322;2022-08-19T02:47:15;48.87;;;43.53;;
21215;SDS011;10765;50.954;5.322;2022-08-19T02:49:43;47.00;;;42.07;;
21215;SDS011;10765;50.954;5.322;2022-08-19T02:52:10;48.10;;;43.03;;
21215;SDS011;10765;50.954;5.322;2022-08-19T02:54:37;52.10;;;43.87;;
21215;SDS011;10765;50.954;5.322;2022-08-19T02:57:04;58.93;;;50.40;;
21215;SDS011;10765;50.954;5.322;2022-08-19T02:59:33;55.27;;;49.27;;
21215;SDS011;10765;50.954;5.322;2022-08-19T03:02:00;64.10;;;52.13;;
21215;SDS011;10765;50.954;5.322;2022-08-19T03:04:29;62.97;;;53.03;;
21215;SDS011;10765;50.954;5.322;2022-08-19T03:06:56;64.97;;;51.47;;
21215;SDS011;10765;50.954;5.322;2022-08-19T03:09:23;63.00;;;53.27;;
21215;SDS011;10765;50.954;5.322;2022-08-19T03:11:49;65.43;;;54.40;;
21215;SDS011;10765;50.954;5.322;2022-08-19T03:14:16;69.17;;;55.43;;
21215;SDS011;10765;50.954;5.322;2022-08-19T03:16:44;66.77;;;54.77;;
21215;SDS011;10765;50.954;5.322;2022-08-19T03:19:13;68.50;;;54.60;;
21215;SDS011;10765;50.954;5.322;2022-08-19T03:21:42;70.30;;;54.17;;
21215;SDS011;10765;50.954;5.322;2022-08-19T03:24:10;68.20;;;54.87;;
21215;SDS011;10765;50.954;5.322;2022-08-19T03:26:38;71.80;;;55.70;;
21215;SDS011;10765;50.954;5.322;2022-08-19T03:29:06;67.87;;;52.97;;
21215;SDS011;10765;50.954;5.322;2022-08-19T03:31:35;71.00;;;56.10;;
21215;SDS011;10765;50.954;5.322;2022-08-19T03:34:03;74.43;;;56.07;;
21215;SDS011;10765;50.954;5.322;2022-08-19T03:36:30;71.60;;;54.77;;
21215;SDS011;10765;50.954;5.322;2022-08-19T03:38:59;76.13;;;56.37;;
21215;SDS011;10765;50.954;5.322;2022-08-19T03:41:27;73.30;;;53.90;;
21215;SDS011;10765;50.954;5.322;2022-08-19T03:43:56;65.33;;;50.43;;
21215;SDS011;10765;50.954;5.322;2022-08-19T03:46:25;65.30;;;50.93;;
21215;SDS011;10765;50.954;5.322;2022-08-19T03:48:54;69.33;;;51.63;;
21215;SDS011;10765;50.954;5.322;2022-08-19T03:51:22;53.30;;;44.73;;
21215;SDS011;10765;50.954;5.322;2022-08-19T03:53:51;47.60;;;39.07;;
21215;SDS011;10765;50.954;5.322;2022-08-19T03:56:20;62.70;;;48.50;;
21215;SDS011;10765;50.954;5.322;2022-08-19T03:58:50;56.07;;;43.43;;
21215;SDS011;10765;50.954;5.322;2022-08-19T04:01:18;42.37;;;36.57;;
21215;SDS011;10765;50.954;5.322;2022-08-19T04:03:48;56.97;;;45.20;;
21215;SDS011;10765;50.954;5.322;2022-08-19T04:06:16;43.33;;;35.37;;
21215;SDS011;10765;50.954;5.322;2022-08-19T04:08:46;54.73;;;41.43;;
21215;SDS011;10765;50.954;5.322;2022-08-19T04:11:15;52.27;;;42.53;;
21215;SDS011;10765;50.954;5.322;2022-08-19T04:13:47;47.73;;;39.17;;
21215;SDS011;10765;50.954;5.322;2022-08-19T04:16:16;38.43;;;32.40;;
21215;SDS011;10765;50.954;5.322;2022-08-19T04:18:44;36.53;;;30.90;;
21215;SDS011;10765;50.954;5.322;2022-08-19T04:21:15;71.10;;;52.33;;
21215;SDS011;10765;50.954;5.322;2022-08-19T04:23:44;76.60;;;56.53;;
21215;SDS011;10765;50.954;5.322;2022-08-19T04:26:12;70.73;;;52.97;;
21215;SDS011;10765;50.954;5.322;2022-08-19T04:28:40;74.20;;;53.03;;
21215;SDS011;10765;50.954;5.322;2022-08-19T04:31:11;75.97;;;55.43;;
21215;SDS011;10765;50.954;5.322;2022-08-19T04:33:39;84.87;;;58.80;;
21215;SDS011;10765;50.954;5.322;2022-08-19T04:36:07;86.00;;;61.37;;
21215;SDS011;10765;50.954;5.322;2022-08-19T04:38:35;91.50;;;62.30;;
21215;SDS011;10765;50.954;5.322;2022-08-19T04:41:02;91.47;;;62.13;;
21215;SDS011;10765;50.954;5.322;2022-08-19T04:43:47;101.63;;;65.80;;
21215;SDS011;10765;50.954;5.322;2022-08-19T04:46:16;95.93;;;63.20;;
21215;SDS011;10765;50.954;5.322;2022-08-19T04:48:45;74.37;;;51.63;;
21215;SDS011;10765;50.954;5.322;2022-08-19T04:51:12;61.77;;;47.00;;
21215;SDS011;10765;50.954;5.322;2022-08-19T04:53:40;58.80;;;43.73;;
21215;SDS011;10765;50.954;5.322;2022-08-19T04:56:08;63.90;;;47.30;;
21215;SDS011;10765;50.954;5.322;2022-08-19T04:58:37;54.57;;;42.17;;
21215;SDS011;10765;50.954;5.322;2022-08-19T05:01:05;41.87;;;34.43;;
21215;SDS011;10765;50.954;5.322;2022-08-19T05:03:33;62.00;;;48.33;;
21215;SDS011;10765;50.954;5.322;2022-08-19T05:06:03;56.93;;;44.80;;
21215;SDS011;10765;50.954;5.322;2022-08-19T05:08:32;51.20;;;42.27;;
21215;SDS011;10765;50.954;5.322;2022-08-19T05:11:00;53.60;;;42.27;;
21215;SDS011;10765;50.954;5.322;2022-08-19T05:13:27;48.77;;;39.13;;
21215;SDS011;10765;50.954;5.322;2022-08-19T05:15:55;52.10;;;42.73;;
21215;SDS011;10765;50.954;5.322;2022-08-19T05:18:23;47.87;;;40.47;;
21215;SDS011;10765;50.954;5.322;2022-08-19T05:21:09;43.97;;;37.80;;
21215;SDS011;10765;50.954;5.322;2022-08-19T05:23:56;33.70;;;30.00;;
21215;SDS011;10765;50.954;5.322;2022-08-19T05:26:23;28.03;;;25.03;;
21215;SDS011;10765;50.954;5.322;2022-08-19T05:28:51;37.13;;;33.23;;
21215;SDS011;10765;50.954;5.322;2022-08-19T05:31:18;33.27;;;29.80;;
21215;SDS011;10765;50.954;5.322;2022-08-19T05:33:45;46.20;;;39.73;;
21215;SDS011;10765;50.954;5.322;2022-08-19T05:36:14;41.07;;;36.33;;
21215;SDS011;10765;50.954;5.322;2022-08-19T05:38:41;43.73;;;39.03;;
21215;SDS011;10765;50.954;5.322;2022-08-19T05:41:08;46.20;;;40.47;;
21215;SDS011;10765;50.954;5.322;2022-08-19T05:43:38;56.60;;;48.47;;
21215;SDS011;10765;50.954;5.322;2022-08-19T05:46:05;52.53;;;45.83;;
21215;SDS011;10765;50.954;5.322;2022-08-19T05:48:33;52.43;;;44.80;;
21215;SDS011;10765;50.954;5.322;2022-08-19T05:51:03;50.60;;;45.23;;
21215;SDS011;10765;50.954;5.322;2022-08-19T05:53:32;50.87;;;45.30;;
21215;SDS011;10765;50.954;5.322;2022-08-19T05:56:02;48.83;;;43.73;;
21215;SDS011;10765;50.954;5.322;2022-08-19T05:58:30;45.53;;;40.73;;
21215;SDS011;10765;50.954;5.322;2022-08-19T06:00:57;44.80;;;40.40;;
21215;SDS011;10765;50.954;5.322;2022-08-19T06:03:29;44.60;;;40.17;;
21215;SDS011;10765;50.954;5.322;2022-08-19T06:05:56;44.67;;;40.07;;
21215;SDS011;10765;50.954;5.322;2022-08-19T06:08:25;43.43;;;38.83;;
21215;SDS011;10765;50.954;5.322;2022-08-19T06:10:54;42.40;;;38.07;;
21215;SDS011;10765;50.954;5.322;2022-08-19T06:13:21;39.27;;;35.40;;
21215;SDS011;10765;50.954;5.322;2022-08-19T06:15:50;39.83;;;36.03;;
21215;SDS011;10765;50.954;5.322;2022-08-19T06:18:17;40.83;;;36.80;;
21215;SDS011;10765;50.954;5.322;2022-08-19T06:20:44;37.67;;;33.93;;
21215;SDS011;10765;50.954;5.322;2022-08-19T06:23:11;38.03;;;34.13;;
21215;SDS011;10765;50.954;5.322;2022-08-19T06:25:38;35.90;;;32.33;;
21215;SDS011;10765;50.954;5.322;2022-08-19T06:28:07;35.17;;;31.50;;
21215;SDS011;10765;50.954;5.322;2022-08-19T06:30:35;34.97;;;31.57;;
21215;SDS011;10765;50.954;5.322;2022-08-19T06:33:02;35.47;;;32.07;;
21215;SDS011;10765;50.954;5.322;2022-08-19T06:35:29;32.43;;;29.03;;
21215;SDS011;10765;50.954;5.322;2022-08-19T06:37:56;31.73;;;28.73;;
21215;SDS011;10765;50.954;5.322;2022-08-19T06:40:23;31.73;;;28.60;;
21215;SDS011;10765;50.954;5.322;2022-08-19T06:42:50;30.63;;;27.37;;
21215;SDS011;10765;50.954;5.322;2022-08-19T06:45:19;29.30;;;26.20;;
21215;SDS011;10765;50.954;5.322;2022-08-19T06:47:46;30.10;;;27.07;;
21215;SDS011;10765;50.954;5.322;2022-08-19T06:50:13;27.47;;;24.77;;
21215;SDS011;10765;50.954;5.322;2022-08-19T06:52:40;29.50;;;26.53;;
21215;SDS011;10765;50.954;5.322;2022-08-19T06:55:07;28.43;;;25.57;;
21215;SDS011;10765;50.954;5.322;2022-08-19T06:57:34;27.97;;;24.80;;
21215;SDS011;10765;50.954;5.322;2022-08-19T07:00:02;26.27;;;23.77;;
21215;SDS011;10765;50.954;5.322;2022-08-19T07:02:33;24.63;;;22.23;;
21215;SDS011;10765;50.954;5.322;2022-08-19T07:05:03;25.77;;;23.27;;
21215;SDS011;10765;50.954;5.322;2022-08-19T07:07:30;22.80;;;20.50;;
21215;SDS011;10765;50.954;5.322;2022-08-19T07:09:58;22.10;;;19.90;;
21215;SDS011;10765;50.954;5.322;2022-08-19T07:12:24;23.70;;;21.30;;
21215;SDS011;10765;50.954;5.322;2022-08-19T07:14:52;23.30;;;20.90;;
21215;SDS011;10765;50.954;5.322;2022-08-19T07:17:19;22.73;;;20.43;;
21215;SDS011;10765;50.954;5.322;2022-08-19T07:19:47;21.00;;;19.00;;
21215;SDS011;10765;50.954;5.322;2022-08-19T07:22:15;22.77;;;20.50;;
21215;SDS011;10765;50.954;5.322;2022-08-19T07:24:45;21.20;;;19.03;;
21215;SDS011;10765;50.954;5.322;2022-08-19T07:27:13;21.70;;;19.47;;
21215;SDS011;10765;50.954;5.322;2022-08-19T07:29:40;22.50;;;20.10;;
21215;SDS011;10765;50.954;5.322;2022-08-19T07:32:07;20.80;;;18.63;;
21215;SDS011;10765;50.954;5.322;2022-08-19T07:34:34;23.27;;;18.63;;
21215;SDS011;10765;50.954;5.322;2022-08-19T07:37:04;19.23;;;17.33;;
21215;SDS011;10765;50.954;5.322;2022-08-19T07:39:32;18.57;;;16.67;;
21215;SDS011;10765;50.954;5.322;2022-08-19T07:42:01;19.10;;;17.10;;
21215;SDS011;10765;50.954;5.322;2022-08-19T07:44:32;18.30;;;16.60;;
21215;SDS011;10765;50.954;5.322;2022-08-19T07:46:59;20.10;;;17.23;;
21215;SDS011;10765;50.954;5.322;2022-08-19T07:49:27;22.20;;;19.83;;
21215;SDS011;10765;50.954;5.322;2022-08-19T07:51:55;21.73;;;19.67;;
21215;SDS011;10765;50.954;5.322;2022-08-19T07:54:25;32.83;;;30.10;;
21215;SDS011;10765;50.954;5.322;2022-08-19T07:56:54;18.77;;;16.70;;
21215;SDS011;10765;50.954;5.322;2022-08-19T07:59:22;19.40;;;16.57;;
21215;SDS011;10765;50.954;5.322;2022-08-19T08:01:50;18.53;;;16.30;;
21215;SDS011;10765;50.954;5.322;2022-08-19T08:04:17;19.77;;;16.53;;
21215;SDS011;10765;50.954;5.322;2022-08-19T08:07:03;19.27;;;16.37;;
21215;SDS011;10765;50.954;5.322;2022-08-19T08:09:48;20.53;;;17.10;;
21215;SDS011;10765;50.954;5.322;2022-08-19T08:12:16;18.67;;;16.67;;
21215;SDS011;10765;50.954;5.322;2022-08-19T08:14:48;17.60;;;15.70;;
21215;SDS011;10765;50.954;5.322;2022-08-19T08:17:17;20.87;;;17.87;;
21215;SDS011;10765;50.954;5.322;2022-08-19T08:19:45;27.13;;;24.53;;
21215;SDS011;10765;50.954;5.322;2022-08-19T08:22:16;18.73;;;16.70;;
21215;SDS011;10765;50.954;5.322;2022-08-19T08:25:03;19.83;;;15.93;;
21215;SDS011;10765;50.954;5.322;2022-08-19T08:27:33;18.47;;;15.70;;
21215;SDS011;10765;50.954;5.322;2022-08-19T08:30:02;17.00;;;15.17;;
21215;SDS011;10765;50.954;5.322;2022-08-19T08:32:30;19.27;;;15.10;;
21215;SDS011;10765;50.954;5.322;2022-08-19T08:34:57;18.13;;;16.03;;
21215;SDS011;10765;50.954;5.322;2022-08-19T08:37:24;17.87;;;16.10;;
21215;SDS011;10765;50.954;5.322;2022-08-19T08:39:51;17.00;;;15.20;;
21215;SDS011;10765;50.954;5.322;2022-08-19T08:42:21;15.77;;;14.17;;
21215;SDS011;10765;50.954;5.322;2022-08-19T08:44:53;16.20;;;12.97;;
21215;SDS011;10765;50.954;5.322;2022-08-19T08:47:24;13.17;;;11.97;;
21215;SDS011;10765;50.954;5.322;2022-08-19T08:49:53;16.93;;;15.47;;
21215;SDS011;10765;50.954;5.322;2022-08-19T08:52:26;22.80;;;20.90;;
21215;SDS011;10765;50.954;5.322;2022-08-19T08:54:57;12.07;;;10.73;;
21215;SDS011;10765;50.954;5.322;2022-08-19T08:57:30;11.33;;;10.43;;
21215;SDS011;10765;50.954;5.322;2022-08-19T09:00:03;10.20;;;9.27;;
21215;SDS011;10765;50.954;5.322;2022-08-19T09:02:33;12.40;;;8.80;;
21215;SDS011;10765;50.954;5.322;2022-08-19T09:05:00;11.13;;;10.03;;
21215;SDS011;10765;50.954;5.322;2022-08-19T09:07:31;10.23;;;9.23;;
21215;SDS011;10765;50.954;5.322;2022-08-19T09:10:09;11.33;;;9.37;;
21215;SDS011;10765;50.954;5.322;2022-08-19T09:12:47;18.07;;;16.53;;
21215;SDS011;10765;50.954;5.322;2022-08-19T09:15:22;9.77;;;8.93;;
21215;SDS011;10765;50.954;5.322;2022-08-19T09:17:58;9.53;;;8.30;;
21215;SDS011;10765;50.954;5.322;2022-08-19T09:20:26;11.47;;;9.43;;
21215;SDS011;10765;50.954;5.322;2022-08-19T09:22:54;9.53;;;8.40;;
21215;SDS011;10765;50.954;5.322;2022-08-19T09:25:21;11.20;;;9.27;;
21215;SDS011;10765;50.954;5.322;2022-08-19T09:27:50;9.03;;;8.23;;
21215;SDS011;10765;50.954;5.322;2022-08-19T09:30:22;9.17;;;8.10;;
21215;SDS011;10765;50.954;5.322;2022-08-19T09:32:50;10.90;;;8.50;;
21215;SDS011;10765;50.954;5.322;2022-08-19T09:35:19;8.30;;;7.50;;
21215;SDS011;10765;50.954;5.322;2022-08-19T09:37:47;7.40;;;6.70;;
21215;SDS011;10765;50.954;5.322;2022-08-19T09:40:15;9.87;;;9.07;;
21215;SDS011;10765;50.954;5.322;2022-08-19T09:42:43;7.03;;;5.95;;
21215;SDS011;10765;50.954;5.322;2022-08-19T09:45:13;7.85;;;7.05;;
21215;SDS011;10765;50.954;5.322;2022-08-19T09:47:41;5.88;;;5.28;;
21215;SDS011;10765;50.954;5.322;2022-08-19T09:50:09;7.45;;;5.35;;
21215;SDS011;10765;50.954;5.322;2022-08-19T09:52:38;9.23;;;6.70;;
21215;SDS011;10765;50.954;5.322;2022-08-19T09:55:08;7.18;;;6.28;;
21215;SDS011;10765;50.954;5.322;2022-08-19T09:57:36;5.85;;;5.28;;
21215;SDS011;10765;50.954;5.322;2022-08-19T10:00:04;6.20;;;3.90;;
21215;SDS011;10765;50.954;5.322;2022-08-19T10:02:35;8.20;;;4.10;;
21215;SDS011;10765;50.954;5.322;2022-08-19T10:05:03;5.13;;;3.53;;
21215;SDS011;10765;50.954;5.322;2022-08-19T10:07:48;5.28;;;3.95;;
21215;SDS011;10765;50.954;5.322;2022-08-19T10:10:15;5.25;;;4.60;;
21215;SDS011;10765;50.954;5.322;2022-08-19T10:12:42;4.53;;;3.75;;
21215;SDS011;10765;50.954;5.322;2022-08-19T10:15:12;5.97;;;4.22;;
21215;SDS011;10765;50.954;5.322;2022-08-19T10:17:40;5.22;;;4.72;;
21215;SDS011;10765;50.954;5.322;2022-08-19T10:20:08;5.72;;;3.97;;
21215;SDS011;10765;50.954;5.322;2022-08-19T10:22:36;5.70;;;4.20;;
21215;SDS011;10765;50.954;5.322;2022-08-19T10:25:04;4.57;;;4.05;;
21215;SDS011;10765;50.954;5.322;2022-08-19T10:27:32;6.63;;;6.13;;
21215;SDS011;10765;50.954;5.322;2022-08-19T10:29:59;11.35;;;10.27;;
21215;SDS011;10765;50.954;5.322;2022-08-19T10:32:26;4.40;;;4.00;;
21215;SDS011;10765;50.954;5.322;2022-08-19T10:34:55;6.07;;;4.23;;
21215;SDS011;10765;50.954;5.322;2022-08-19T10:37:22;12.07;;;5.00;;
21215;SDS011;10765;50.954;5.322;2022-08-19T10:39:49;6.03;;;5.00;;
21215;SDS011;10765;50.954;5.322;2022-08-19T10:42:16;5.33;;;4.30;;
21215;SDS011;10765;50.954;5.322;2022-08-19T10:44:44;7.20;;;4.00;;
21215;SDS011;10765;50.954;5.322;2022-08-19T10:47:13;5.57;;;4.50;;
21215;SDS011;10765;50.954;5.322;2022-08-19T10:49:40;8.97;;;4.60;;
21215;SDS011;10765;50.954;5.322;2022-08-19T10:52:23;5.87;;;4.83;;
21215;SDS011;10765;50.954;5.322;2022-08-19T10:55:02;6.90;;;4.90;;
21215;SDS011;10765;50.954;5.322;2022-08-19T10:57:48;5.50;;;4.60;;
21215;SDS011;10765;50.954;5.322;2022-08-19T11:00:16;5.20;;;4.60;;
21215;SDS011;10765;50.954;5.322;2022-08-19T11:02:43;5.47;;;3.93;;
21215;SDS011;10765;50.954;5.322;2022-08-19T11:05:11;5.03;;;4.53;;
21215;SDS011;10765;50.954;5.322;2022-08-19T11:07:40;6.63;;;4.13;;
21215;SDS011;10765;50.954;5.322;2022-08-19T11:10:09;5.43;;;4.17;;
21215;SDS011;10765;50.954;5.322;2022-08-19T11:12:38;4.57;;;4.00;;
21215;SDS011;10765;50.954;5.322;2022-08-19T11:15:06;5.63;;;3.70;;
21215;SDS011;10765;50.954;5.322;2022-08-19T11:17:36;4.37;;;3.97;;
21215;SDS011;10765;50.954;5.322;2022-08-19T11:20:05;4.27;;;3.93;;
21215;SDS011;10765;50.954;5.322;2022-08-19T11:22:33;4.90;;;4.30;;
21215;SDS011;10765;50.954;5.322;2022-08-19T11:25:02;4.97;;;3.90;;
21215;SDS011;10765;50.954;5.322;2022-08-19T11:27:30;5.07;;;4.37;;
21215;SDS011;10765;50.954;5.322;2022-08-19T11:29:57;6.30;;;5.80;;
21215;SDS011;10765;50.954;5.322;2022-08-19T11:32:24;14.20;;;13.10;;
21215;SDS011;10765;50.954;5.322;2022-08-19T11:34:51;4.63;;;3.73;;
21215;SDS011;10765;50.954;5.322;2022-08-19T11:37:18;5.60;;;3.33;;
21215;SDS011;10765;50.954;5.322;2022-08-19T11:39:45;6.50;;;4.10;;
21215;SDS011;10765;50.954;5.322;2022-08-19T11:42:13;5.83;;;3.90;;
21215;SDS011;10765;50.954;5.322;2022-08-19T11:44:57;5.50;;;4.07;;
21215;SDS011;10765;50.954;5.322;2022-08-19T11:47:24;5.33;;;3.97;;
21215;SDS011;10765;50.954;5.322;2022-08-19T11:49:51;4.77;;;4.10;;
21215;SDS011;10765;50.954;5.322;2022-08-19T11:52:19;5.63;;;3.60;;
21215;SDS011;10765;50.954;5.322;2022-08-19T11:54:46;4.47;;;3.70;;
21215;SDS011;10765;50.954;5.322;2022-08-19T11:57:14;5.37;;;3.97;;
21215;SDS011;10765;50.954;5.322;2022-08-19T11:59:42;4.10;;;3.70;;
21215;SDS011;10765;50.954;5.322;2022-08-19T12:02:13;4.30;;;3.63;;
21215;SDS011;10765;50.954;5.322;2022-08-19T12:04:40;5.57;;;3.60;;
21215;SDS011;10765;50.954;5.322;2022-08-19T12:07:07;7.07;;;3.45;;
21215;SDS011;10765;50.954;5.322;2022-08-19T12:09:34;3.90;;;3.43;;
21215;SDS011;10765;50.954;5.322;2022-08-19T12:12:01;3.87;;;3.50;;
21215;SDS011;10765;50.954;5.322;2022-08-19T12:14:30;4.97;;;3.63;;
21215;SDS011;10765;50.954;5.322;2022-08-19T12:16:57;4.77;;;3.30;;
21215;SDS011;10765;50.954;5.322;2022-08-19T12:19:25;4.10;;;3.53;;
21215;SDS011;10765;50.954;5.322;2022-08-19T12:21:51;4.00;;;3.60;;
21215;SDS011;10765;50.954;5.322;2022-08-19T12:24:20;4.17;;;3.67;;
21215;SDS011;10765;50.954;5.322;2022-08-19T12:26:48;3.53;;;3.23;;
21215;SDS011;10765;50.954;5.322;2022-08-19T12:29:16;4.03;;;3.40;;
21215;SDS011;10765;50.954;5.322;2022-08-19T12:31:44;6.10;;;4.83;;
21215;SDS011;10765;50.954;5.322;2022-08-19T12:34:11;5.80;;;4.63;;
21215;SDS011;10765;50.954;5.322;2022-08-19T12:36:38;5.10;;;4.57;;
21215;SDS011;10765;50.954;5.322;2022-08-19T12:39:05;5.63;;;4.07;;
21215;SDS011;10765;50.954;5.322;2022-08-19T12:41:33;6.20;;;4.47;;
21215;SDS011;10765;50.954;5.322;2022-08-19T12:44:00;4.60;;;3.70;;
21215;SDS011;10765;50.954;5.322;2022-08-19T12:46:27;4.53;;;3.83;;
21215;SDS011;10765;50.954;5.322;2022-08-19T12:48:55;4.47;;;3.77;;
21215;SDS011;10765;50.954;5.322;2022-08-19T12:51:22;6.73;;;3.43;;
21215;SDS011;10765;50.954;5.322;2022-08-19T12:53:51;5.57;;;3.40;;
21215;SDS011;10765;50.954;5.322;2022-08-19T12:56:18;4.03;;;3.53;;
21215;SDS011;10765;50.954;5.322;2022-08-19T12:58:45;3.50;;;3.20;;
21215;SDS011;10765;50.954;5.322;2022-08-19T13:01:13;4.07;;;3.30;;
21215;SDS011;10765;50.954;5.322;2022-08-19T13:03:41;5.43;;;3.40;;
21215;SDS011;10765;50.954;5.322;2022-08-19T13:06:10;3.97;;;3.53;;
21215;SDS011;10765;50.954;5.322;2022-08-19T13:08:37;4.40;;;3.40;;
21215;SDS011;10765;50.954;5.322;2022-08-19T13:11:08;4.83;;;3.53;;
21215;SDS011;10765;50.954;5.322;2022-08-19T13:13:37;5.10;;;3.40;;
21215;SDS011;10765;50.954;5.322;2022-08-19T13:16:06;4.73;;;3.47;;
21215;SDS011;10765;50.954;5.322;2022-08-19T13:18:34;3.70;;;3.40;;
21215;SDS011;10765;50.954;5.322;2022-08-19T13:21:02;4.40;;;3.27;;
21215;SDS011;10765;50.954;5.322;2022-08-19T13:23:32;4.17;;;3.30;;
21215;SDS011;10765;50.954;5.322;2022-08-19T13:26:01;4.63;;;3.13;;
21215;SDS011;10765;50.954;5.322;2022-08-19T13:28:30;3.67;;;2.83;;
21215;SDS011;10765;50.954;5.322;2022-08-19T13:31:14;3.70;;;3.10;;
21215;SDS011;10765;50.954;5.322;2022-08-19T13:34:00;3.53;;;2.77;;
21215;SDS011;10765;50.954;5.322;2022-08-19T13:36:27;3.33;;;2.70;;
21215;SDS011;10765;50.954;5.322;2022-08-19T13:38:55;6.37;;;2.97;;
21215;SDS011;10765;50.954;5.322;2022-08-19T13:41:22;2.73;;;2.50;;
21215;SDS011;10765;50.954;5.322;2022-08-19T13:43:49;4.03;;;2.53;;
21215;SDS011;10765;50.954;5.322;2022-08-19T13:46:16;2.80;;;2.20;;
21215;SDS011;10765;50.954;5.322;2022-08-19T13:48:44;3.00;;;2.70;;
21215;SDS011;10765;50.954;5.322;2022-08-19T13:51:13;2.97;;;2.70;;
21215;SDS011;10765;50.954;5.322;2022-08-19T13:53:41;2.57;;;2.37;;
21215;SDS011;10765;50.954;5.322;2022-08-19T13:56:11;4.27;;;2.47;;
21215;SDS011;10765;50.954;5.322;2022-08-19T13:58:39;3.20;;;2.57;;
21215;SDS011;10765;50.954;5.322;2022-08-19T14:01:06;2.50;;;2.30;;
21215;SDS011;10765;50.954;5.322;2022-08-19T14:03:34;3.60;;;3.00;;
21215;SDS011;10765;50.954;5.322;2022-08-19T14:06:01;3.20;;;2.90;;
21215;SDS011;10765;50.954;5.322;2022-08-19T14:08:28;2.90;;;2.60;;
21215;SDS011;10765;50.954;5.322;2022-08-19T14:10:57;3.13;;;2.83;;
21215;SDS011;10765;50.954;5.322;2022-08-19T14:13:25;2.80;;;2.60;;
21215;SDS011;10765;50.954;5.322;2022-08-19T14:15:52;3.17;;;2.87;;
21215;SDS011;10765;50.954;5.322;2022-08-19T14:18:19;2.83;;;2.60;;
21215;SDS011;10765;50.954;5.322;2022-08-19T14:20:46;2.67;;;2.37;;
21215;SDS011;10765;50.954;5.322;2022-08-19T14:23:14;2.97;;;2.77;;
21215;SDS011;10765;50.954;5.322;2022-08-19T14:25:41;3.40;;;3.10;;
21215;SDS011;10765;50.954;5.322;2022-08-19T14:28:08;3.60;;;3.30;;
21215;SDS011;10765;50.954;5.322;2022-08-19T14:30:36;2.80;;;2.50;;
21215;SDS011;10765;50.954;5.322;2022-08-19T14:33:04;2.63;;;2.43;;
21215;SDS011;10765;50.954;5.322;2022-08-19T14:35:33;2.80;;;2.60;;
21215;SDS011;10765;50.954;5.322;2022-08-19T14:38:00;3.03;;;2.70;;
21215;SDS011;10765;50.954;5.322;2022-08-19T14:40:28;4.17;;;3.37;;